sensor_id;sensor_type;location;lat;lon;timestamp;P1;durP1;ratioP1;P2;durP2;ratioP2
11414;SDS011;5763;42.714;23.244;2023-03-26T00:00:22;0.85;;;0.50;;
11414;SDS011;5763;42.714;23.244;2023-03-26T00:02:49;0.55;;;0.40;;
11414;SDS011;5763;42.714;23.244;2023-03-26T00:05:16;0.65;;;0.43;;
11414;SDS011;5763;42.714;23.244;2023-03-26T00:07:43;0.75;;;0.40;;
11414;SDS011;5763;42.714;23.244;2023-03-26T00:10:10;1.33;;;0.40;;
11414;SDS011;5763;42.714;23.244;2023-03-26T00:12:39;0.43;;;0.38;;
11414;SDS011;5763;42.714;23.244;2023-03-26T00:15:08;0.38;;;0.30;;
11414;SDS011;5763;42.714;23.244;2023-03-26T00:17:35;0.28;;;0.20;;
11414;SDS011;5763;42.714;23.244;2023-03-26T00:20:02;1.35;;;0.35;;
11414;SDS011;5763;42.714;23.244;2023-03-26T00:22:29;0.40;;;0.32;;
11414;SDS011;5763;42.714;23.244;2023-03-26T00:24:56;0.60;;;0.40;;
11414;SDS011;5763;42.714;23.244;2023-03-26T00:27:23;0.40;;;0.30;;
11414;SDS011;5763;42.714;23.244;2023-03-26T00:29:51;0.47;;;0.47;;
11414;SDS011;5763;42.714;23.244;2023-03-26T00:32:21;0.30;;;0.30;;
11414;SDS011;5763;42.714;23.244;2023-03-26T00:34:52;0.60;;;0.50;;
11414;SDS011;5763;42.714;23.244;2023-03-26T00:37:19;0.80;;;0.70;;
11414;SDS011;5763;42.714;23.244;2023-03-26T00:39:50;0.40;;;0.40;;
11414;SDS011;5763;42.714;23.244;2023-03-26T00:42:17;0.70;;;0.50;;
11414;SDS011;5763;42.714;23.244;2023-03-26T00:44:44;1.42;;;0.60;;
11414;SDS011;5763;42.714;23.244;2023-03-26T00:47:10;0.98;;;0.50;;
11414;SDS011;5763;42.714;23.244;2023-03-26T00:49:39;1.20;;;0.50;;
11414;SDS011;5763;42.714;23.244;2023-03-26T00:52:06;0.60;;;0.40;;
11414;SDS011;5763;42.714;23.244;2023-03-26T00:54:33;0.40;;;0.35;;
11414;SDS011;5763;42.714;23.244;2023-03-26T00:56:59;0.30;;;0.30;;
11414;SDS011;5763;42.714;23.244;2023-03-26T00:59:27;0.25;;;0.25;;
11414;SDS011;5763;42.714;23.244;2023-03-26T01:01:54;0.40;;;0.40;;
11414;SDS011;5763;42.714;23.244;2023-03-26T01:04:23;0.45;;;0.40;;
11414;SDS011;5763;42.714;23.244;2023-03-26T01:06:56;0.45;;;0.40;;
11414;SDS011;5763;42.714;23.244;2023-03-26T01:09:28;0.43;;;0.30;;
11414;SDS011;5763;42.714;23.244;2023-03-26T01:11:58;0.93;;;0.25;;
11414;SDS011;5763;42.714;23.244;2023-03-26T01:14:26;0.30;;;0.30;;
11414;SDS011;5763;42.714;23.244;2023-03-26T01:16:54;0.35;;;0.32;;
11414;SDS011;5763;42.714;23.244;2023-03-26T01:19:29;0.43;;;0.40;;
11414;SDS011;5763;42.714;23.244;2023-03-26T01:22:05;0.80;;;0.73;;
11414;SDS011;5763;42.714;23.244;2023-03-26T01:24:36;0.38;;;0.38;;
11414;SDS011;5763;42.714;23.244;2023-03-26T01:27:06;0.50;;;0.47;;
11414;SDS011;5763;42.714;23.244;2023-03-26T01:29:43;0.60;;;0.50;;
11414;SDS011;5763;42.714;23.244;2023-03-26T01:32:17;0.82;;;0.50;;
11414;SDS011;5763;42.714;23.244;2023-03-26T01:34:59;0.75;;;0.55;;
11414;SDS011;5763;42.714;23.244;2023-03-26T01:37:38;0.60;;;0.40;;
11414;SDS011;5763;42.714;23.244;2023-03-26T01:40:19;0.52;;;0.50;;
11414;SDS011;5763;42.714;23.244;2023-03-26T01:42:53;0.73;;;0.40;;
11414;SDS011;5763;42.714;23.244;2023-03-26T01:45:27;0.28;;;0.28;;
11414;SDS011;5763;42.714;23.244;2023-03-26T01:47:57;0.60;;;0.45;;
11414;SDS011;5763;42.714;23.244;2023-03-26T01:50:25;0.40;;;0.40;;
11414;SDS011;5763;42.714;23.244;2023-03-26T01:52:51;0.50;;;0.40;;
11414;SDS011;5763;42.714;23.244;2023-03-26T01:55:20;0.52;;;0.50;;
11414;SDS011;5763;42.714;23.244;2023-03-26T01:57:51;0.47;;;0.47;;
11414;SDS011;5763;42.714;23.244;2023-03-26T02:00:26;1.95;;;0.65;;
11414;SDS011;5763;42.714;23.244;2023-03-26T02:02:58;0.90;;;0.70;;
11414;SDS011;5763;42.714;23.244;2023-03-26T02:05:43;1.05;;;0.68;;
11414;SDS011;5763;42.714;23.244;2023-03-26T02:08:15;1.48;;;0.70;;
11414;SDS011;5763;42.714;23.244;2023-03-26T02:10:49;0.85;;;0.60;;
11414;SDS011;5763;42.714;23.244;2023-03-26T02:13:19;1.27;;;0.98;;
11414;SDS011;5763;42.714;23.244;2023-03-26T02:15:56;0.68;;;0.68;;
11414;SDS011;5763;42.714;23.244;2023-03-26T02:18:24;0.60;;;0.55;;
11414;SDS011;5763;42.714;23.244;2023-03-26T02:21:01;1.00;;;0.70;;
11414;SDS011;5763;42.714;23.244;2023-03-26T02:23:29;1.35;;;0.70;;
11414;SDS011;5763;42.714;23.244;2023-03-26T02:26:01;0.73;;;0.70;;
11414;SDS011;5763;42.714;23.244;2023-03-26T02:28:30;1.08;;;0.95;;
11414;SDS011;5763;42.714;23.244;2023-03-26T02:30:57;0.93;;;0.88;;
11414;SDS011;5763;42.714;23.244;2023-03-26T02:33:25;0.75;;;0.73;;
11414;SDS011;5763;42.714;23.244;2023-03-26T02:35:52;1.15;;;0.90;;
11414;SDS011;5763;42.714;23.244;2023-03-26T02:38:23;0.90;;;0.70;;
11414;SDS011;5763;42.714;23.244;2023-03-26T02:40:51;0.70;;;0.70;;
11414;SDS011;5763;42.714;23.244;2023-03-26T02:43:20;1.33;;;0.90;;
11414;SDS011;5763;42.714;23.244;2023-03-26T02:45:47;1.02;;;0.70;;
11414;SDS011;5763;42.714;23.244;2023-03-26T02:48:14;0.95;;;0.80;;
11414;SDS011;5763;42.714;23.244;2023-03-26T02:50:41;0.70;;;0.70;;
11414;SDS011;5763;42.714;23.244;2023-03-26T02:53:08;0.98;;;0.80;;
11414;SDS011;5763;42.714;23.244;2023-03-26T02:55:36;0.80;;;0.80;;
11414;SDS011;5763;42.714;23.244;2023-03-26T02:58:02;1.17;;;0.90;;
11414;SDS011;5763;42.714;23.244;2023-03-26T03:00:31;0.98;;;0.88;;
11414;SDS011;5763;42.714;23.244;2023-03-26T03:02:58;0.88;;;0.80;;
11414;SDS011;5763;42.714;23.244;2023-03-26T03:05:28;1.23;;;0.90;;
11414;SDS011;5763;42.714;23.244;2023-03-26T03:07:55;0.80;;;0.77;;
11414;SDS011;5763;42.714;23.244;2023-03-26T03:10:22;1.48;;;1.20;;
11414;SDS011;5763;42.714;23.244;2023-03-26T03:12:50;1.52;;;1.10;;
11414;SDS011;5763;42.714;23.244;2023-03-26T03:15:17;1.27;;;1.17;;
11414;SDS011;5763;42.714;23.244;2023-03-26T03:17:45;1.63;;;1.40;;
11414;SDS011;5763;42.714;23.244;2023-03-26T03:20:12;2.00;;;1.58;;
11414;SDS011;5763;42.714;23.244;2023-03-26T03:22:39;1.85;;;1.30;;
11414;SDS011;5763;42.714;23.244;2023-03-26T03:25:07;1.50;;;1.40;;
11414;SDS011;5763;42.714;23.244;2023-03-26T03:27:38;1.73;;;1.40;;
11414;SDS011;5763;42.714;23.244;2023-03-26T03:30:07;1.50;;;1.40;;
11414;SDS011;5763;42.714;23.244;2023-03-26T03:32:36;1.98;;;1.20;;
11414;SDS011;5763;42.714;23.244;2023-03-26T03:35:04;1.63;;;1.52;;
11414;SDS011;5763;42.714;23.244;2023-03-26T03:37:31;2.03;;;1.45;;
11414;SDS011;5763;42.714;23.244;2023-03-26T03:39:58;1.65;;;1.45;;
11414;SDS011;5763;42.714;23.244;2023-03-26T03:42:25;1.83;;;1.52;;
11414;SDS011;5763;42.714;23.244;2023-03-26T03:44:52;1.90;;;1.40;;
11414;SDS011;5763;42.714;23.244;2023-03-26T03:47:19;2.53;;;1.38;;
11414;SDS011;5763;42.714;23.244;2023-03-26T03:49:47;1.90;;;1.30;;
11414;SDS011;5763;42.714;23.244;2023-03-26T03:52:15;1.98;;;1.50;;
11414;SDS011;5763;42.714;23.244;2023-03-26T03:54:42;1.65;;;1.50;;
11414;SDS011;5763;42.714;23.244;2023-03-26T03:57:09;2.33;;;1.60;;
11414;SDS011;5763;42.714;23.244;2023-03-26T03:59:35;1.63;;;1.52;;
11414;SDS011;5763;42.714;23.244;2023-03-26T04:02:02;1.90;;;1.60;;
11414;SDS011;5763;42.714;23.244;2023-03-26T04:04:29;2.28;;;2.03;;
11414;SDS011;5763;42.714;23.244;2023-03-26T04:06:56;2.30;;;2.10;;
11414;SDS011;5763;42.714;23.244;2023-03-26T04:09:25;2.20;;;1.77;;
11414;SDS011;5763;42.714;23.244;2023-03-26T04:11:51;2.28;;;1.88;;
11414;SDS011;5763;42.714;23.244;2023-03-26T04:14:18;2.05;;;1.85;;
11414;SDS011;5763;42.714;23.244;2023-03-26T04:16:45;2.28;;;2.08;;
11414;SDS011;5763;42.714;23.244;2023-03-26T04:19:13;2.25;;;2.05;;
11414;SDS011;5763;42.714;23.244;2023-03-26T04:21:40;2.58;;;2.35;;
11414;SDS011;5763;42.714;23.244;2023-03-26T04:24:07;2.42;;;2.22;;
11414;SDS011;5763;42.714;23.244;2023-03-26T04:26:36;2.50;;;2.30;;
11414;SDS011;5763;42.714;23.244;2023-03-26T04:29:04;2.72;;;2.10;;
11414;SDS011;5763;42.714;23.244;2023-03-26T04:31:36;2.00;;;1.80;;
11414;SDS011;5763;42.714;23.244;2023-03-26T04:34:04;2.00;;;1.80;;
11414;SDS011;5763;42.714;23.244;2023-03-26T04:36:37;2.88;;;2.25;;
11414;SDS011;5763;42.714;23.244;2023-03-26T04:39:08;2.28;;;2.10;;
11414;SDS011;5763;42.714;23.244;2023-03-26T04:41:39;3.35;;;2.25;;
11414;SDS011;5763;42.714;23.244;2023-03-26T04:44:06;2.65;;;2.45;;
11414;SDS011;5763;42.714;23.244;2023-03-26T04:46:33;2.67;;;2.47;;
11414;SDS011;5763;42.714;23.244;2023-03-26T04:49:00;2.47;;;2.28;;
11414;SDS011;5763;42.714;23.244;2023-03-26T04:51:29;2.80;;;2.60;;
11414;SDS011;5763;42.714;23.244;2023-03-26T04:54:02;3.42;;;2.50;;
11414;SDS011;5763;42.714;23.244;2023-03-26T04:56:33;2.90;;;2.70;;
11414;SDS011;5763;42.714;23.244;2023-03-26T04:59:08;3.28;;;2.97;;
11414;SDS011;5763;42.714;23.244;2023-03-26T05:01:38;3.05;;;2.75;;
11414;SDS011;5763;42.714;23.244;2023-03-26T05:04:06;3.65;;;3.35;;
11414;SDS011;5763;42.714;23.244;2023-03-26T05:06:33;3.67;;;3.38;;
11414;SDS011;5763;42.714;23.244;2023-03-26T05:09:02;4.45;;;3.85;;
11414;SDS011;5763;42.714;23.244;2023-03-26T05:11:29;4.15;;;3.75;;
11414;SDS011;5763;42.714;23.244;2023-03-26T05:13:56;4.75;;;4.20;;
11414;SDS011;5763;42.714;23.244;2023-03-26T05:16:24;5.38;;;4.88;;
11414;SDS011;5763;42.714;23.244;2023-03-26T05:18:51;5.40;;;4.15;;
11414;SDS011;5763;42.714;23.244;2023-03-26T05:21:18;5.28;;;4.57;;
11414;SDS011;5763;42.714;23.244;2023-03-26T05:23:46;5.10;;;4.45;;
11414;SDS011;5763;42.714;23.244;2023-03-26T05:26:13;5.82;;;5.32;;
11414;SDS011;5763;42.714;23.244;2023-03-26T05:28:40;6.45;;;5.20;;
11414;SDS011;5763;42.714;23.244;2023-03-26T05:31:07;6.35;;;5.40;;
11414;SDS011;5763;42.714;23.244;2023-03-26T05:33:37;6.25;;;5.65;;
11414;SDS011;5763;42.714;23.244;2023-03-26T05:36:04;5.13;;;4.63;;
11414;SDS011;5763;42.714;23.244;2023-03-26T05:38:37;5.10;;;4.70;;
11414;SDS011;5763;42.714;23.244;2023-03-26T05:41:05;5.35;;;4.85;;
11414;SDS011;5763;42.714;23.244;2023-03-26T05:43:33;5.53;;;5.00;;
11414;SDS011;5763;42.714;23.244;2023-03-26T05:46:01;5.47;;;4.95;;
11414;SDS011;5763;42.714;23.244;2023-03-26T05:48:28;5.32;;;4.82;;
11414;SDS011;5763;42.714;23.244;2023-03-26T05:50:56;6.32;;;5.20;;
11414;SDS011;5763;42.714;23.244;2023-03-26T05:53:24;6.22;;;5.63;;
11414;SDS011;5763;42.714;23.244;2023-03-26T05:55:52;5.78;;;4.85;;
11414;SDS011;5763;42.714;23.244;2023-03-26T05:58:22;5.32;;;4.82;;
11414;SDS011;5763;42.714;23.244;2023-03-26T06:00:54;4.97;;;4.50;;
11414;SDS011;5763;42.714;23.244;2023-03-26T06:03:22;5.38;;;4.90;;
11414;SDS011;5763;42.714;23.244;2023-03-26T06:05:50;5.10;;;4.60;;
11414;SDS011;5763;42.714;23.244;2023-03-26T06:08:18;5.30;;;4.80;;
11414;SDS011;5763;42.714;23.244;2023-03-26T06:10:46;6.18;;;5.57;;
11414;SDS011;5763;42.714;23.244;2023-03-26T06:13:12;5.60;;;4.60;;
11414;SDS011;5763;42.714;23.244;2023-03-26T06:15:40;5.53;;;5.03;;
11414;SDS011;5763;42.714;23.244;2023-03-26T06:18:07;7.63;;;5.80;;
11414;SDS011;5763;42.714;23.244;2023-03-26T06:20:34;6.85;;;5.85;;
11414;SDS011;5763;42.714;23.244;2023-03-26T06:23:01;6.47;;;5.80;;
11414;SDS011;5763;42.714;23.244;2023-03-26T06:25:30;6.53;;;5.90;;
11414;SDS011;5763;42.714;23.244;2023-03-26T06:27:56;5.90;;;5.25;;
11414;SDS011;5763;42.714;23.244;2023-03-26T06:30:23;6.10;;;5.35;;
11414;SDS011;5763;42.714;23.244;2023-03-26T06:32:50;9.15;;;5.22;;
11414;SDS011;5763;42.714;23.244;2023-03-26T06:35:17;5.32;;;4.32;;
11414;SDS011;5763;42.714;23.244;2023-03-26T06:37:43;7.38;;;4.00;;
11414;SDS011;5763;42.714;23.244;2023-03-26T06:40:11;5.20;;;4.70;;
11414;SDS011;5763;42.714;23.244;2023-03-26T06:42:40;4.85;;;4.38;;
11414;SDS011;5763;42.714;23.244;2023-03-26T06:45:07;4.95;;;4.55;;
11414;SDS011;5763;42.714;23.244;2023-03-26T06:47:34;6.15;;;5.50;;
11414;SDS011;5763;42.714;23.244;2023-03-26T06:50:01;5.72;;;5.22;;
11414;SDS011;5763;42.714;23.244;2023-03-26T06:52:28;6.15;;;5.07;;
11414;SDS011;5763;42.714;23.244;2023-03-26T06:54:54;5.72;;;5.22;;
11414;SDS011;5763;42.714;23.244;2023-03-26T06:57:21;5.50;;;5.00;;
11414;SDS011;5763;42.714;23.244;2023-03-26T06:59:49;5.35;;;4.85;;
11414;SDS011;5763;42.714;23.244;2023-03-26T07:02:16;5.65;;;5.15;;
11414;SDS011;5763;42.714;23.244;2023-03-26T07:04:43;5.95;;;4.55;;
11414;SDS011;5763;42.714;23.244;2023-03-26T07:07:09;4.68;;;3.97;;
11414;SDS011;5763;42.714;23.244;2023-03-26T07:09:37;5.07;;;4.63;;
11414;SDS011;5763;42.714;23.244;2023-03-26T07:12:04;5.05;;;4.53;;
11414;SDS011;5763;42.714;23.244;2023-03-26T07:14:31;7.47;;;4.53;;
11414;SDS011;5763;42.714;23.244;2023-03-26T07:17:00;4.20;;;3.90;;
11414;SDS011;5763;42.714;23.244;2023-03-26T07:19:27;4.90;;;4.50;;
11414;SDS011;5763;42.714;23.244;2023-03-26T07:21:54;4.70;;;4.30;;
11414;SDS011;5763;42.714;23.244;2023-03-26T07:24:21;4.82;;;4.43;;
11414;SDS011;5763;42.714;23.244;2023-03-26T07:26:50;4.53;;;4.13;;
11414;SDS011;5763;42.714;23.244;2023-03-26T07:29:27;4.53;;;4.13;;
11414;SDS011;5763;42.714;23.244;2023-03-26T07:32:03;5.28;;;4.60;;
11414;SDS011;5763;42.714;23.244;2023-03-26T07:34:42;4.90;;;4.50;;
11414;SDS011;5763;42.714;23.244;2023-03-26T07:37:21;4.63;;;4.22;;
11414;SDS011;5763;42.714;23.244;2023-03-26T07:39:58;4.25;;;3.85;;
11414;SDS011;5763;42.714;23.244;2023-03-26T07:42:32;4.13;;;3.72;;
11414;SDS011;5763;42.714;23.244;2023-03-26T07:45:16;4.68;;;4.22;;
11414;SDS011;5763;42.714;23.244;2023-03-26T07:47:50;5.00;;;4.50;;
11414;SDS011;5763;42.714;23.244;2023-03-26T07:50:18;5.03;;;4.50;;
11414;SDS011;5763;42.714;23.244;2023-03-26T07:52:47;4.55;;;4.15;;
11414;SDS011;5763;42.714;23.244;2023-03-26T07:55:15;4.30;;;3.88;;
11414;SDS011;5763;42.714;23.244;2023-03-26T07:57:46;3.85;;;3.47;;
11414;SDS011;5763;42.714;23.244;2023-03-26T08:00:22;3.78;;;3.45;;
11414;SDS011;5763;42.714;23.244;2023-03-26T08:03:10;4.50;;;3.25;;
11414;SDS011;5763;42.714;23.244;2023-03-26T08:05:59;3.70;;;3.35;;
11414;SDS011;5763;42.714;23.244;2023-03-26T08:08:35;4.10;;;3.58;;
11414;SDS011;5763;42.714;23.244;2023-03-26T08:11:13;4.65;;;3.40;;
11414;SDS011;5763;42.714;23.244;2023-03-26T08:13:54;3.50;;;3.20;;
11414;SDS011;5763;42.714;23.244;2023-03-26T08:16:27;3.15;;;2.85;;
11414;SDS011;5763;42.714;23.244;2023-03-26T08:19:04;3.45;;;3.10;;
11414;SDS011;5763;42.714;23.244;2023-03-26T08:21:38;3.90;;;3.60;;
11414;SDS011;5763;42.714;23.244;2023-03-26T08:24:12;3.40;;;3.10;;
11414;SDS011;5763;42.714;23.244;2023-03-26T08:26:47;3.70;;;3.40;;
11414;SDS011;5763;42.714;23.244;2023-03-26T08:29:23;3.50;;;3.20;;
11414;SDS011;5763;42.714;23.244;2023-03-26T08:31:56;3.22;;;2.60;;
11414;SDS011;5763;42.714;23.244;2023-03-26T08:34:27;2.90;;;2.70;;
11414;SDS011;5763;42.714;23.244;2023-03-26T08:36:53;4.05;;;2.85;;
11414;SDS011;5763;42.714;23.244;2023-03-26T08:39:20;4.22;;;3.20;;
11414;SDS011;5763;42.714;23.244;2023-03-26T08:48:01;3.58;;;2.50;;
11414;SDS011;5763;42.714;23.244;2023-03-26T08:51:04;2.60;;;2.40;;
11414;SDS011;5763;42.714;23.244;2023-03-26T08:56:43;2.63;;;2.20;;
11414;SDS011;5763;42.714;23.244;2023-03-26T09:02:49;3.00;;;2.70;;
11414;SDS011;5763;42.714;23.244;2023-03-26T09:08:50;3.60;;;2.28;;
11414;SDS011;5763;42.714;23.244;2023-03-26T09:11:55;2.95;;;2.40;;
11414;SDS011;5763;42.714;23.244;2023-03-26T09:14:50;2.65;;;2.00;;
11414;SDS011;5763;42.714;23.244;2023-03-26T09:20:53;1.83;;;1.40;;
11414;SDS011;5763;42.714;23.244;2023-03-26T09:27:01;2.17;;;1.90;;
11414;SDS011;5763;42.714;23.244;2023-03-26T09:29:56;2.97;;;1.75;;
11414;SDS011;5763;42.714;23.244;2023-03-26T09:35:47;1.40;;;1.20;;
11414;SDS011;5763;42.714;23.244;2023-03-26T09:41:09;1.50;;;1.40;;
11414;SDS011;5763;42.714;23.244;2023-03-26T09:43:54;1.73;;;1.40;;
11414;SDS011;5763;42.714;23.244;2023-03-26T09:46:40;3.38;;;1.63;;
11414;SDS011;5763;42.714;23.244;2023-03-26T09:49:26;1.83;;;1.10;;
11414;SDS011;5763;42.714;23.244;2023-03-26T09:52:07;1.67;;;1.40;;
11414;SDS011;5763;42.714;23.244;2023-03-26T09:54:52;2.10;;;1.20;;
11414;SDS011;5763;42.714;23.244;2023-03-26T09:57:42;1.70;;;1.20;;
11414;SDS011;5763;42.714;23.244;2023-03-26T10:00:25;2.28;;;1.30;;
11414;SDS011;5763;42.714;23.244;2023-03-26T10:03:02;1.30;;;1.20;;
11414;SDS011;5763;42.714;23.244;2023-03-26T10:05:58;1.60;;;1.00;;
11414;SDS011;5763;42.714;23.244;2023-03-26T10:08:46;1.08;;;0.90;;
11414;SDS011;5763;42.714;23.244;2023-03-26T10:11:25;1.17;;;0.93;;
11414;SDS011;5763;42.714;23.244;2023-03-26T10:14:07;2.00;;;1.00;;
11414;SDS011;5763;42.714;23.244;2023-03-26T10:16:46;1.15;;;0.90;;
11414;SDS011;5763;42.714;23.244;2023-03-26T10:19:26;1.88;;;0.85;;
11414;SDS011;5763;42.714;23.244;2023-03-26T10:22:08;1.08;;;0.85;;
11414;SDS011;5763;42.714;23.244;2023-03-26T10:27:48;2.15;;;1.50;;
11414;SDS011;5763;42.714;23.244;2023-03-26T10:30:37;2.85;;;1.50;;
11414;SDS011;5763;42.714;23.244;2023-03-26T10:33:21;2.22;;;1.55;;
11414;SDS011;5763;42.714;23.244;2023-03-26T10:36:01;4.18;;;1.90;;
11414;SDS011;5763;42.714;23.244;2023-03-26T10:41:58;1.20;;;1.10;;
11414;SDS011;5763;42.714;23.244;2023-03-26T10:48:00;3.28;;;2.97;;
11414;SDS011;5763;42.714;23.244;2023-03-26T10:50:52;2.13;;;1.15;;
11414;SDS011;5763;42.714;23.244;2023-03-26T10:53:33;1.23;;;0.80;;
11414;SDS011;5763;42.714;23.244;2023-03-26T10:56:06;1.10;;;0.80;;
11414;SDS011;5763;42.714;23.244;2023-03-26T10:58:42;1.67;;;1.42;;
11414;SDS011;5763;42.714;23.244;2023-03-26T11:01:13;2.15;;;1.40;;
11414;SDS011;5763;42.714;23.244;2023-03-26T11:03:47;1.80;;;1.00;;
11414;SDS011;5763;42.714;23.244;2023-03-26T11:06:29;1.23;;;0.80;;
11414;SDS011;5763;42.714;23.244;2023-03-26T11:09:02;1.35;;;1.00;;
11414;SDS011;5763;42.714;23.244;2023-03-26T11:11:42;2.60;;;1.33;;
11414;SDS011;5763;42.714;23.244;2023-03-26T11:14:18;2.25;;;1.23;;
11414;SDS011;5763;42.714;23.244;2023-03-26T11:16:52;1.80;;;1.70;;
11414;SDS011;5763;42.714;23.244;2023-03-26T11:19:29;1.60;;;1.17;;
11414;SDS011;5763;42.714;23.244;2023-03-26T11:21:59;2.17;;;1.65;;
11414;SDS011;5763;42.714;23.244;2023-03-26T11:24:44;2.30;;;1.88;;
11414;SDS011;5763;42.714;23.244;2023-03-26T11:27:23;1.90;;;1.40;;
11414;SDS011;5763;42.714;23.244;2023-03-26T11:30:02;1.88;;;1.48;;
11414;SDS011;5763;42.714;23.244;2023-03-26T11:32:41;1.35;;;0.70;;
11414;SDS011;5763;42.714;23.244;2023-03-26T11:35:16;2.13;;;1.00;;
11414;SDS011;5763;42.714;23.244;2023-03-26T11:37:49;1.42;;;1.13;;
11414;SDS011;5763;42.714;23.244;2023-03-26T11:40:19;1.30;;;1.08;;
11414;SDS011;5763;42.714;23.244;2023-03-26T11:42:53;1.38;;;1.00;;
11414;SDS011;5763;42.714;23.244;2023-03-26T11:45:24;1.70;;;1.00;;
11414;SDS011;5763;42.714;23.244;2023-03-26T11:47:55;1.27;;;0.95;;
11414;SDS011;5763;42.714;23.244;2023-03-26T11:50:26;1.45;;;1.20;;
11414;SDS011;5763;42.714;23.244;2023-03-26T11:52:57;1.40;;;1.13;;
11414;SDS011;5763;42.714;23.244;2023-03-26T11:55:28;1.17;;;1.00;;
11414;SDS011;5763;42.714;23.244;2023-03-26T11:57:56;1.00;;;0.88;;
11414;SDS011;5763;42.714;23.244;2023-03-26T12:00:26;1.08;;;1.00;;
11414;SDS011;5763;42.714;23.244;2023-03-26T12:02:55;0.90;;;0.60;;
11414;SDS011;5763;42.714;23.244;2023-03-26T12:05:24;1.20;;;0.82;;
11414;SDS011;5763;42.714;23.244;2023-03-26T12:07:56;1.05;;;0.70;;
11414;SDS011;5763;42.714;23.244;2023-03-26T12:10:25;0.98;;;0.85;;
11414;SDS011;5763;42.714;23.244;2023-03-26T12:12:57;1.05;;;0.60;;
11414;SDS011;5763;42.714;23.244;2023-03-26T12:15:26;0.77;;;0.77;;
11414;SDS011;5763;42.714;23.244;2023-03-26T12:17:55;0.80;;;0.70;;
11414;SDS011;5763;42.714;23.244;2023-03-26T12:20:33;1.08;;;0.50;;
11414;SDS011;5763;42.714;23.244;2023-03-26T12:23:03;1.27;;;0.90;;
11414;SDS011;5763;42.714;23.244;2023-03-26T12:25:32;1.13;;;0.88;;
11414;SDS011;5763;42.714;23.244;2023-03-26T12:28:01;1.67;;;0.98;;
11414;SDS011;5763;42.714;23.244;2023-03-26T12:30:29;1.05;;;0.80;;
11414;SDS011;5763;42.714;23.244;2023-03-26T12:32:58;0.98;;;0.80;;
11414;SDS011;5763;42.714;23.244;2023-03-26T12:35:28;0.88;;;0.60;;
11414;SDS011;5763;42.714;23.244;2023-03-26T12:43:37;0.60;;;0.57;;
11414;SDS011;5763;42.714;23.244;2023-03-26T12:46:18;1.45;;;0.50;;
11414;SDS011;5763;42.714;23.244;2023-03-26T12:48:50;0.63;;;0.50;;
11414;SDS011;5763;42.714;23.244;2023-03-26T12:51:21;0.70;;;0.70;;
11414;SDS011;5763;42.714;23.244;2023-03-26T12:54:09;0.40;;;0.40;;
11414;SDS011;5763;42.714;23.244;2023-03-26T12:57:10;0.40;;;0.40;;
11414;SDS011;5763;42.714;23.244;2023-03-26T13:05:58;0.45;;;0.45;;
11414;SDS011;5763;42.714;23.244;2023-03-26T13:11:49;2.58;;;0.80;;
11414;SDS011;5763;42.714;23.244;2023-03-26T13:14:40;0.65;;;0.60;;
11414;SDS011;5763;42.714;23.244;2023-03-26T13:17:28;0.77;;;0.70;;
11414;SDS011;5763;42.714;23.244;2023-03-26T13:20:01;0.88;;;0.60;;
11414;SDS011;5763;42.714;23.244;2023-03-26T13:22:38;0.40;;;0.40;;
11414;SDS011;5763;42.714;23.244;2023-03-26T13:25:15;1.50;;;0.60;;
11414;SDS011;5763;42.714;23.244;2023-03-26T13:27:52;0.60;;;0.60;;
11414;SDS011;5763;42.714;23.244;2023-03-26T13:30:30;1.90;;;0.52;;
11414;SDS011;5763;42.714;23.244;2023-03-26T13:33:08;1.63;;;0.43;;
11414;SDS011;5763;42.714;23.244;2023-03-26T13:35:46;0.73;;;0.57;;
11414;SDS011;5763;42.714;23.244;2023-03-26T13:38:19;0.85;;;0.55;;
11414;SDS011;5763;42.714;23.244;2023-03-26T13:40:54;2.15;;;0.70;;
11414;SDS011;5763;42.714;23.244;2023-03-26T13:43:29;1.98;;;0.50;;
11414;SDS011;5763;42.714;23.244;2023-03-26T13:46:05;2.53;;;0.82;;
11414;SDS011;5763;42.714;23.244;2023-03-26T13:48:39;0.50;;;0.50;;
11414;SDS011;5763;42.714;23.244;2023-03-26T13:51:14;0.70;;;0.60;;
11414;SDS011;5763;42.714;23.244;2023-03-26T13:53:45;0.68;;;0.60;;
11414;SDS011;5763;42.714;23.244;2023-03-26T13:56:16;1.60;;;0.70;;
11414;SDS011;5763;42.714;23.244;2023-03-26T13:58:46;0.93;;;0.77;;
11414;SDS011;5763;42.714;23.244;2023-03-26T14:01:21;2.40;;;0.60;;
11414;SDS011;5763;42.714;23.244;2023-03-26T14:03:59;0.60;;;0.60;;
11414;SDS011;5763;42.714;23.244;2023-03-26T14:06:34;1.70;;;1.30;;
11414;SDS011;5763;42.714;23.244;2023-03-26T14:09:10;4.05;;;1.70;;
11414;SDS011;5763;42.714;23.244;2023-03-26T14:11:45;1.90;;;1.35;;
11414;SDS011;5763;42.714;23.244;2023-03-26T14:14:22;1.08;;;0.70;;
11414;SDS011;5763;42.714;23.244;2023-03-26T14:17:00;1.17;;;0.40;;
11414;SDS011;5763;42.714;23.244;2023-03-26T14:22:26;0.90;;;0.52;;
11414;SDS011;5763;42.714;23.244;2023-03-26T14:25:07;2.20;;;0.60;;
11414;SDS011;5763;42.714;23.244;2023-03-26T14:27:50;0.80;;;0.50;;
11414;SDS011;5763;42.714;23.244;2023-03-26T14:30:46;0.88;;;0.80;;
11414;SDS011;5763;42.714;23.244;2023-03-26T14:33:34;0.50;;;0.50;;
11414;SDS011;5763;42.714;23.244;2023-03-26T14:36:14;0.88;;;0.43;;
11414;SDS011;5763;42.714;23.244;2023-03-26T14:39:03;0.55;;;0.50;;
11414;SDS011;5763;42.714;23.244;2023-03-26T14:41:45;2.28;;;0.70;;
11414;SDS011;5763;42.714;23.244;2023-03-26T14:44:28;0.63;;;0.52;;
11414;SDS011;5763;42.714;23.244;2023-03-26T14:47:12;3.97;;;0.90;;
11414;SDS011;5763;42.714;23.244;2023-03-26T14:49:48;0.95;;;0.60;;
11414;SDS011;5763;42.714;23.244;2023-03-26T14:52:35;3.40;;;1.00;;
11414;SDS011;5763;42.714;23.244;2023-03-26T14:55:12;0.85;;;0.80;;
11414;SDS011;5763;42.714;23.244;2023-03-26T14:57:48;1.23;;;1.05;;
11414;SDS011;5763;42.714;23.244;2023-03-26T15:00:33;1.42;;;0.80;;
11414;SDS011;5763;42.714;23.244;2023-03-26T15:03:34;0.77;;;0.60;;
11414;SDS011;5763;42.714;23.244;2023-03-26T15:09:40;1.27;;;0.60;;
11414;SDS011;5763;42.714;23.244;2023-03-26T15:12:32;1.00;;;0.70;;
11414;SDS011;5763;42.714;23.244;2023-03-26T15:18:27;0.98;;;0.70;;
11414;SDS011;5763;42.714;23.244;2023-03-26T15:31:09;1.55;;;0.60;;
11414;SDS011;5763;42.714;23.244;2023-03-26T15:34:05;2.05;;;0.85;;
11414;SDS011;5763;42.714;23.244;2023-03-26T15:39:48;0.90;;;0.90;;
11414;SDS011;5763;42.714;23.244;2023-03-26T15:42:40;2.05;;;1.15;;
11414;SDS011;5763;42.714;23.244;2023-03-26T15:45:15;3.08;;;1.00;;
11414;SDS011;5763;42.714;23.244;2023-03-26T15:47:54;0.90;;;0.65;;
11414;SDS011;5763;42.714;23.244;2023-03-26T15:50:35;1.65;;;0.80;;
11414;SDS011;5763;42.714;23.244;2023-03-26T15:53:21;0.75;;;0.70;;
11414;SDS011;5763;42.714;23.244;2023-03-26T15:56:02;2.70;;;1.00;;
11414;SDS011;5763;42.714;23.244;2023-03-26T15:58:41;1.35;;;0.63;;
11414;SDS011;5763;42.714;23.244;2023-03-26T16:01:16;0.85;;;0.70;;
11414;SDS011;5763;42.714;23.244;2023-03-26T16:03:56;2.00;;;0.73;;
11414;SDS011;5763;42.714;23.244;2023-03-26T16:06:36;1.95;;;0.80;;
11414;SDS011;5763;42.714;23.244;2023-03-26T16:09:24;1.15;;;0.75;;
11414;SDS011;5763;42.714;23.244;2023-03-26T16:15:12;0.65;;;0.65;;
11414;SDS011;5763;42.714;23.244;2023-03-26T16:20:55;2.03;;;0.98;;
11414;SDS011;5763;42.714;23.244;2023-03-26T16:23:29;1.27;;;1.10;;
11414;SDS011;5763;42.714;23.244;2023-03-26T16:26:10;2.28;;;1.05;;
11414;SDS011;5763;42.714;23.244;2023-03-26T16:34:44;1.58;;;1.20;;
11414;SDS011;5763;42.714;23.244;2023-03-26T16:40:27;2.03;;;1.40;;
11414;SDS011;5763;42.714;23.244;2023-03-26T16:43:02;4.75;;;1.73;;
11414;SDS011;5763;42.714;23.244;2023-03-26T16:45:41;4.60;;;2.30;;
11414;SDS011;5763;42.714;23.244;2023-03-26T16:48:18;3.05;;;1.92;;
11414;SDS011;5763;42.714;23.244;2023-03-26T16:50:52;1.70;;;1.52;;
11414;SDS011;5763;42.714;23.244;2023-03-26T16:53:26;3.83;;;1.80;;
11414;SDS011;5763;42.714;23.244;2023-03-26T16:56:09;2.50;;;1.75;;